createdAt,value
2022-10-26T00:01:39.309Z,62.67
2022-10-26T00:04:15.275Z,63.53
2022-10-26T00:06:46.424Z,63.73
2022-10-26T00:09:19.146Z,62.28
2022-10-26T00:11:55.560Z,63.39
2022-10-26T00:14:30.953Z,63.60
2022-10-26T00:17:00.090Z,62.79
2022-10-26T00:19:35.661Z,62.50
2022-10-26T00:22:06.453Z,63.23
2022-10-26T00:24:36.295Z,62.05
2022-10-26T00:27:08.412Z,62.18
2022-10-26T00:29:39.833Z,61.99
2022-10-26T00:32:09.470Z,62.18
2022-10-26T00:34:42.813Z,61.50
2022-10-26T00:37:13.155Z,60.70
2022-10-26T00:39:49.293Z,60.63
2022-10-26T00:42:23.023Z,60.09
2022-10-26T00:45:03.193Z,61.26
2022-10-26T00:47:46.055Z,61.67
2022-10-26T00:50:29.770Z,61.56
2022-10-26T00:53:00.323Z,61.35
2022-10-26T00:55:44.681Z,61.42
2022-10-26T00:58:15.693Z,62.33
2022-10-26T01:00:49.995Z,63.48
2022-10-26T01:03:25.717Z,62.62
2022-10-26T01:06:00.920Z,62.37
2022-10-26T01:08:34.471Z,62.49
2022-10-26T01:11:11.264Z,62.57
2022-10-26T01:13:44.452Z,62.00
2022-10-26T01:16:41.987Z,62.26
2022-10-26T01:19:23.983Z,62.39
2022-10-26T01:22:19.534Z,63.40
2022-10-26T01:24:58.961Z,63.67
2022-10-26T01:27:44.401Z,63.06
2022-10-26T01:30:34.758Z,63.56
2022-10-26T01:33:44.769Z,63.53
2022-10-26T01:36:46.585Z,62.98
2022-10-26T01:39:23.207Z,62.49
2022-10-26T01:42:01.497Z,62.20
2022-10-26T01:44:42.498Z,62.50
2022-10-26T01:47:16.809Z,62.53
2022-10-26T01:49:51.638Z,62.40
2022-10-26T01:52:27.653Z,62.29
2022-10-26T01:55:27.592Z,62.25
2022-10-26T01:58:04.481Z,63.02
2022-10-26T02:00:41.753Z,62.26
2022-10-26T02:03:27.490Z,62.34
2022-10-26T02:06:24.102Z,62.48
2022-10-26T02:11:42.089Z,62.75
2022-10-26T02:14:22.482Z,63.48
2022-10-26T02:17:06.753Z,62.97
2022-10-26T02:19:43.350Z,63.46
2022-10-26T02:22:15.242Z,62.59
2022-10-26T02:24:44.494Z,62.66
2022-10-26T02:27:16.994Z,62.84
2022-10-26T02:29:46.050Z,62.90
2022-10-26T02:32:14.652Z,62.64
2022-10-26T02:34:45.222Z,62.64
2022-10-26T02:37:16.365Z,62.44
2022-10-26T02:39:51.460Z,62.51
2022-10-26T02:42:25.193Z,63.03
2022-10-26T02:45:00.795Z,64.07
2022-10-26T02:47:30.191Z,63.69
2022-10-26T02:49:58.933Z,62.79
2022-10-26T02:52:49.008Z,63.69
2022-10-26T02:55:27.659Z,63.01
2022-10-26T02:58:03.617Z,62.69
2022-10-26T03:00:32.840Z,63.57
2022-10-26T03:03:03.759Z,62.94
2022-10-26T03:05:37.231Z,63.07
2022-10-26T03:08:08.394Z,63.26
2022-10-26T03:10:45.617Z,64.86
2022-10-26T03:13:19.369Z,64.60
2022-10-26T03:15:50.341Z,64.21
2022-10-26T03:18:28.225Z,64.30
2022-10-26T03:21:01.587Z,63.49
2022-10-26T03:23:31.433Z,63.32
2022-10-26T03:26:09.426Z,63.64
2022-10-26T03:28:38.252Z,63.65
2022-10-26T03:31:09.895Z,63.20
2022-10-26T03:33:38.836Z,62.86
2022-10-26T03:36:07.847Z,64.21
2022-10-26T03:38:40.073Z,63.44
2022-10-26T03:41:11.049Z,63.92
2022-10-26T03:43:43.085Z,64.52
2022-10-26T03:46:14.546Z,64.42
2022-10-26T03:48:49.996Z,65.33
2022-10-26T03:51:21.396Z,65.37
2022-10-26T03:53:52.193Z,66.42
2022-10-26T03:56:24.185Z,65.58
2022-10-26T03:58:55.425Z,65.73
2022-10-26T04:01:23.352Z,66.30
2022-10-26T04:03:52.542Z,65.26
2022-10-26T04:06:21.209Z,65.03
2022-10-26T04:08:52.784Z,66.07
2022-10-26T04:11:32.777Z,66.25
2022-10-26T04:14:04.334Z,65.37
2022-10-26T04:16:33.603Z,65.33
2022-10-26T04:19:07.696Z,65.27
2022-10-26T04:21:39.097Z,65.24
2022-10-26T04:24:07.278Z,66.23
2022-10-26T04:26:35.104Z,66.78
2022-10-26T04:29:06.978Z,66.86
2022-10-26T04:31:35.853Z,66.58
2022-10-26T04:34:06.677Z,67.05
2022-10-26T04:36:40.306Z,68.61
2022-10-26T04:39:12.745Z,67.83
2022-10-26T04:41:42.622Z,68.25
2022-10-26T04:44:19.317Z,67.92
2022-10-26T04:46:55.091Z,67.34
2022-10-26T04:49:29.646Z,67.80
2022-10-26T04:52:00.918Z,66.81
2022-10-26T04:54:34.753Z,66.59
2022-10-26T04:57:03.530Z,64.76
2022-10-26T04:59:37.345Z,63.36
2022-10-26T05:02:07.449Z,63.57
2022-10-26T05:04:37.719Z,63.70
2022-10-26T05:07:07.473Z,63.16
2022-10-26T05:09:41.451Z,62.94
2022-10-26T05:12:18.389Z,63.90
2022-10-26T05:15:03.996Z,63.63
2022-10-26T05:17:41.423Z,65.97
2022-10-26T05:20:18.629Z,65.03
2022-10-26T05:23:05.792Z,64.77
2022-10-26T05:25:38.367Z,64.83
2022-10-26T05:28:15.766Z,64.47
2022-10-26T05:30:52.815Z,66.44
2022-10-26T05:33:25.295Z,65.74
2022-10-26T05:35:58.194Z,64.70
2022-10-26T05:38:50.820Z,63.82
2022-10-26T05:41:28.913Z,64.61
2022-10-26T05:47:40.968Z,65.12
2022-10-26T05:53:35.118Z,66.49
2022-10-26T05:56:30.058Z,66.70
2022-10-26T05:59:10.341Z,65.72
2022-10-26T06:02:01.029Z,65.77
2022-10-26T06:32:41.886Z,64.18
2022-10-26T06:35:34.726Z,63.63
2022-10-26T06:38:20.089Z,64.62
2022-10-26T06:41:05.704Z,63.73
2022-10-26T06:44:00.832Z,63.63
2022-10-26T06:47:12.065Z,63.68
2022-10-26T06:49:51.215Z,63.57
2022-10-26T06:52:43.180Z,63.71
2022-10-26T06:55:49.346Z,64.31
2022-10-26T07:02:15.916Z,64.09
2022-10-26T07:07:54.237Z,63.66
2022-10-26T07:10:30.075Z,62.96
2022-10-26T07:13:25.313Z,62.62
2022-10-26T07:20:29.106Z,61.12
2022-10-26T07:34:07.428Z,62.32
2022-10-26T07:39:50.591Z,61.37
2022-10-26T07:42:22.192Z,60.72
2022-10-26T07:45:08.350Z,61.62
2022-10-26T07:47:57.896Z,60.86
2022-10-26T07:50:52.261Z,60.37
2022-10-26T07:53:31.022Z,60.12
2022-10-26T07:56:12.618Z,60.08
2022-10-26T07:59:05.614Z,59.95
2022-10-26T08:40:53.002Z,59.68
2022-10-26T08:43:44.059Z,59.53
2022-10-26T08:46:24.485Z,59.01
2022-10-26T08:49:01.230Z,58.99
2022-10-26T08:51:39.327Z,58.76
2022-10-26T08:54:46.031Z,60.47
2022-10-26T08:57:28.624Z,59.86
2022-10-26T09:35:27.534Z,65.59
2022-10-26T09:42:12.471Z,66.11
2022-10-26T09:45:12.055Z,65.12
2022-10-26T09:48:05.168Z,65.98
2022-10-26T09:50:36.701Z,66.77
2022-10-26T09:53:16.140Z,66.49
2022-10-26T09:56:02.742Z,65.35
2022-10-26T09:59:25.904Z,66.37
2022-10-26T10:02:19.712Z,64.61
2022-10-26T10:05:05.762Z,63.68
2022-10-26T10:07:59.756Z,63.56
2022-10-26T10:10:46.316Z,63.14
2022-10-26T10:14:14.942Z,63.37
2022-10-26T10:17:11.354Z,65.21
2022-10-26T10:20:02.387Z,66.05
2022-10-26T10:22:43.271Z,66.31
2022-10-26T10:25:54.407Z,66.14
2022-10-26T10:28:46.573Z,68.35
2022-10-26T10:31:36.197Z,66.76
2022-10-26T10:34:22.222Z,66.89
2022-10-26T10:37:01.799Z,66.52
2022-10-26T10:40:09.325Z,64.89
2022-10-26T10:43:16.446Z,65.76
2022-10-26T11:54:39.043Z,59.51
2022-10-26T13:51:47.124Z,54.79
2022-10-26T13:54:50.308Z,53.87
2022-10-26T14:00:23.527Z,55.42
2022-10-26T14:02:52.088Z,56.04
2022-10-26T14:05:20.604Z,57.12
2022-10-26T14:08:00.715Z,57.20
2022-10-26T14:10:41.758Z,57.70
2022-10-26T14:13:18.216Z,56.16
2022-10-26T14:15:50.454Z,56.97
2022-10-26T14:18:24.297Z,57.25
2022-10-26T14:21:16.141Z,58.33
2022-10-26T14:23:59.470Z,58.45
2022-10-26T14:26:39.679Z,57.81
2022-10-26T14:29:24.297Z,57.44
2022-10-26T14:31:58.092Z,56.90
2022-10-26T14:34:34.559Z,56.89
2022-10-26T14:37:15.164Z,56.82
2022-10-26T14:39:46.442Z,56.53
2022-10-26T14:42:38.782Z,57.52
2022-10-26T14:45:47.195Z,57.51
2022-10-26T14:48:27.235Z,57.09
2022-10-26T14:51:09.806Z,57.89
2022-10-26T14:53:40.909Z,57.66
2022-10-26T14:56:29.020Z,58.67
2022-10-26T14:58:58.795Z,57.60
2022-10-26T15:01:35.717Z,58.68
2022-10-26T15:04:07.777Z,57.30
2022-10-26T15:09:51.713Z,56.57
2022-10-26T15:12:20.180Z,57.96
2022-10-26T15:14:54.013Z,57.40
2022-10-26T15:17:27.809Z,56.79
2022-10-26T15:20:08.081Z,56.84
2022-10-26T15:22:49.419Z,56.27
2022-10-26T15:25:35.402Z,56.02
2022-10-26T15:28:42.618Z,56.83
2022-10-26T15:31:14.764Z,57.45
2022-10-26T15:33:56.163Z,57.34
2022-10-26T15:36:28.432Z,57.69
2022-10-26T15:38:59.125Z,58.04
2022-10-26T15:41:32.786Z,57.55
2022-10-26T15:44:19.315Z,57.84
2022-10-26T15:47:08.976Z,58.29
2022-10-26T15:49:42.570Z,58.13
2022-10-26T15:52:18.256Z,60.49
2022-10-26T15:54:48.721Z,60.16
2022-10-26T15:57:34.313Z,59.15
2022-10-26T16:00:05.102Z,60.82
2022-10-26T16:02:42.481Z,62.20
2022-10-26T16:05:19.443Z,63.39
2022-10-26T16:07:52.144Z,62.98
2022-10-26T16:10:25.099Z,61.71
2022-10-26T16:13:04.859Z,61.95
2022-10-26T16:15:42.492Z,62.00
2022-10-26T16:18:12.591Z,61.30
2022-10-26T16:20:46.371Z,60.78
2022-10-26T16:23:14.341Z,60.47
2022-10-26T16:25:46.571Z,61.13
2022-10-26T16:28:22.343Z,61.78
2022-10-26T16:31:01.730Z,62.94
2022-10-26T16:33:31.701Z,62.86
2022-10-26T16:36:02.287Z,62.83
2022-10-26T16:38:33.109Z,61.33
2022-10-26T16:41:09.331Z,61.14
2022-10-26T16:43:41.499Z,60.62
2022-10-26T16:46:21.222Z,61.21
2022-10-26T16:48:53.230Z,60.64
2022-10-26T16:51:23.618Z,60.58
2022-10-26T16:53:56.389Z,60.31
2022-10-26T16:56:29.955Z,61.05
2022-10-26T16:59:07.944Z,61.06
2022-10-26T17:01:37.123Z,62.30
2022-10-26T17:04:10.546Z,62.01
2022-10-26T17:06:40.768Z,64.32
2022-10-26T17:09:10.788Z,65.15
2022-10-26T17:11:40.575Z,65.63
2022-10-26T17:14:10.921Z,65.87
2022-10-26T17:16:40.932Z,65.26
2022-10-26T17:19:11.349Z,64.60
2022-10-26T17:21:44.348Z,62.83
2022-10-26T17:24:14.049Z,62.46
2022-10-26T17:26:45.778Z,62.92
2022-10-26T17:29:14.374Z,61.81
2022-10-26T17:31:44.603Z,61.54
2022-10-26T17:34:13.763Z,61.59
2022-10-26T17:36:42.314Z,62.17
2022-10-26T17:39:30.339Z,62.25
2022-10-26T17:42:00.426Z,63.02
2022-10-26T17:44:29.466Z,63.51
2022-10-26T17:47:00.796Z,64.40
2022-10-26T17:49:36.014Z,63.83
2022-10-26T17:52:08.756Z,63.13
2022-10-26T17:54:42.509Z,63.12
2022-10-26T17:57:13.300Z,62.85
2022-10-26T17:59:48.851Z,62.37
2022-10-26T18:02:18.087Z,61.76
2022-10-26T18:04:47.950Z,61.11
2022-10-26T18:07:18.013Z,61.22
2022-10-26T18:09:49.891Z,61.85
2022-10-26T18:12:21.906Z,61.19
2022-10-26T18:14:55.831Z,61.66
2022-10-26T18:17:27.214Z,61.05
2022-10-26T18:22:31.774Z,62.15
2022-10-26T18:25:02.763Z,62.80
2022-10-26T18:27:31.109Z,62.43
2022-10-26T18:30:01.704Z,62.51
2022-10-26T18:32:31.926Z,62.19
2022-10-26T18:35:03.247Z,62.92
2022-10-26T18:37:39.053Z,64.32
2022-10-26T18:40:08.152Z,62.86
2022-10-26T18:42:38.730Z,62.81
2022-10-26T18:45:08.841Z,63.07
2022-10-26T18:47:39.825Z,63.04
2022-10-26T18:50:09.591Z,62.34
2022-10-26T18:52:41.242Z,63.43
2022-10-26T18:55:21.204Z,65.29
2022-10-26T18:57:49.586Z,63.84
2022-10-26T19:00:18.560Z,63.38
2022-10-26T19:02:51.518Z,63.65
2022-10-26T19:05:23.772Z,62.83
2022-10-26T19:07:52.278Z,62.93
2022-10-26T19:10:24.694Z,63.23
2022-10-26T19:12:57.697Z,61.95
2022-10-26T19:15:30.581Z,61.76
2022-10-26T19:18:02.987Z,62.63
2022-10-26T19:20:38.653Z,63.96
2022-10-26T19:23:14.544Z,65.04
2022-10-26T19:25:47.161Z,65.48
2022-10-26T19:28:16.478Z,63.78
2022-10-26T19:30:46.449Z,62.49
2022-10-26T19:33:16.377Z,61.71
2022-10-26T19:35:47.876Z,62.70
2022-10-26T19:38:23.392Z,62.87
2022-10-26T19:41:09.376Z,63.53
2022-10-26T19:43:39.649Z,63.57
2022-10-26T19:46:15.908Z,63.95
2022-10-26T19:48:53.007Z,65.52
2022-10-26T19:51:27.808Z,66.65
2022-10-26T19:54:03.219Z,67.15
2022-10-26T19:56:34.474Z,67.39
2022-10-26T19:59:07.125Z,67.71
2022-10-26T20:01:40.112Z,66.65
2022-10-26T20:04:27.625Z,66.40
2022-10-26T20:06:57.267Z,65.69
2022-10-26T20:09:30.490Z,67.10
2022-10-26T20:11:59.485Z,66.73
2022-10-26T20:14:30.829Z,67.23
2022-10-26T20:17:01.239Z,66.76
2022-10-26T20:19:31.343Z,66.34
2022-10-26T20:22:03.144Z,66.00
2022-10-26T20:24:33.871Z,67.41
2022-10-26T20:27:07.483Z,66.37
2022-10-26T20:29:39.975Z,66.01
2022-10-26T20:32:16.010Z,65.72
2022-10-26T20:34:48.130Z,65.26
2022-10-26T20:37:17.765Z,64.91
2022-10-26T20:39:52.873Z,63.91
2022-10-26T20:42:24.504Z,65.06
2022-10-26T20:45:15.672Z,63.91
2022-10-26T20:47:44.713Z,64.35
2022-10-26T20:50:14.832Z,64.16
2022-10-26T20:52:57.264Z,64.13
2022-10-26T20:55:41.874Z,64.35
2022-10-26T20:58:32.840Z,63.74
2022-10-26T21:01:03.341Z,64.16
2022-10-26T21:03:32.343Z,62.26
2022-10-26T21:06:00.991Z,61.78
2022-10-26T21:08:30.112Z,62.25
2022-10-26T21:10:58.980Z,62.36
2022-10-26T21:13:28.467Z,62.59
2022-10-26T21:15:57.646Z,62.81
2022-10-26T21:18:26.192Z,62.87
2022-10-26T21:20:58.511Z,64.49
2022-10-26T21:23:34.287Z,65.14
2022-10-26T21:26:03.432Z,66.11
2022-10-26T21:28:45.843Z,65.64
2022-10-26T21:31:21.425Z,64.70
2022-10-26T21:33:51.518Z,65.21
2022-10-26T21:36:20.545Z,64.35
2022-10-26T21:38:49.447Z,64.79
2022-10-26T21:41:21.926Z,64.81
2022-10-26T21:43:59.197Z,65.56
2022-10-26T21:46:38.642Z,65.09
2022-10-26T21:49:07.836Z,64.75
2022-10-26T21:51:35.666Z,64.50
2022-10-26T21:54:04.657Z,64.58
2022-10-26T21:56:34.179Z,64.86
2022-10-26T21:59:06.483Z,65.04
2022-10-26T22:01:38.162Z,65.50
2022-10-26T22:04:10.821Z,65.04
2022-10-26T22:06:39.251Z,65.36
2022-10-26T22:09:10.534Z,64.61
2022-10-26T22:11:40.184Z,64.31
2022-10-26T22:14:11.847Z,65.38
2022-10-26T22:16:42.944Z,64.26
2022-10-26T22:19:12.505Z,64.13
2022-10-26T22:21:45.569Z,64.13
2022-10-26T22:24:15.293Z,64.03
2022-10-26T22:26:47.071Z,64.40
2022-10-26T22:29:15.999Z,64.63
2022-10-26T22:31:48.262Z,65.27
2022-10-26T22:34:20.559Z,64.80
2022-10-26T22:36:54.609Z,65.59
2022-10-26T22:39:25.351Z,66.50
2022-10-26T22:41:56.600Z,66.07
2022-10-26T22:44:28.430Z,65.57
2022-10-26T22:47:03.068Z,65.93
2022-10-26T22:49:33.401Z,65.32
2022-10-26T22:52:09.394Z,65.28
2022-10-26T22:54:40.649Z,65.62
2022-10-26T22:57:15.620Z,65.56
2022-10-26T22:59:45.690Z,68.30
2022-10-26T23:02:17.875Z,67.52
2022-10-26T23:04:56.671Z,66.44
2022-10-26T23:07:30.412Z,65.27
2022-10-26T23:10:01.507Z,64.17
2022-10-26T23:12:34.688Z,64.16
2022-10-26T23:15:04.569Z,64.82
2022-10-26T23:17:34.979Z,65.30
2022-10-26T23:20:03.993Z,65.15
2022-10-26T23:22:33.434Z,65.04
2022-10-26T23:25:04.316Z,65.44
2022-10-26T23:27:34.058Z,66.96
2022-10-26T23:30:06.498Z,65.94
2022-10-26T23:32:37.415Z,65.76
2022-10-26T23:35:11.978Z,65.89
2022-10-26T23:37:43.009Z,67.04
2022-10-26T23:40:14.189Z,68.06
2022-10-26T23:42:43.680Z,68.24
2022-10-26T23:45:17.867Z,66.95
2022-10-26T23:47:48.014Z,67.35
2022-10-26T23:50:24.781Z,66.24
2022-10-26T23:52:55.416Z,66.18
2022-10-26T23:55:28.274Z,65.32
2022-10-26T23:57:59.791Z,65.26
